Industry, Kansas
Current Conditions -  °F | °C
As of 6:58 AM on Friday 31 Oct 2014 (Local Time) from KFRI Reporting Station
Overcast Overcast  
Wind Chill: -2°   Ceiling: 2500
Heat Index:   Visibility: 10mi
Dew Point: -2°   Wind: 15mph
Humidity: 69%   Direction: 40°NE
Pressure: 30.48"   Gusts: 21mph
Location:  39.0421°N, 97.1702°W
Report Text: KFRI 311158Z AUTO 04013G18KT 10SM OVC025 03/M02 A3048 RMK AO2 SLP323 T00271024 10090 20027 52029
Loading
Personal Weather Stations






























Interactive Weather Map
Tropical Storm Tracking
New forecast layout! Learn more

10-Day Weather Forecast

Advertisements
Track Severe Weather on mobile